sensor_id;sensor_type;location;lat;lon;timestamp;P1;durP1;ratioP1;P2;durP2;ratioP2
13708;SDS011;54933;51.908;7.730;2023-11-19T00:00:51;3.80;;;1.13;;
13708;SDS011;54933;51.908;7.730;2023-11-19T00:03:17;5.63;;;0.93;;
13708;SDS011;54933;51.908;7.730;2023-11-19T00:05:42;3.43;;;0.87;;
13708;SDS011;54933;51.908;7.730;2023-11-19T00:08:08;2.23;;;0.80;;
13708;SDS011;54933;51.908;7.730;2023-11-19T00:10:33;7.80;;;0.90;;
13708;SDS011;54933;51.908;7.730;2023-11-19T00:12:59;2.17;;;0.70;;
13708;SDS011;54933;51.908;7.730;2023-11-19T00:15:24;4.30;;;0.93;;
13708;SDS011;54933;51.908;7.730;2023-11-19T00:17:50;2.30;;;0.80;;
13708;SDS011;54933;51.908;7.730;2023-11-19T00:20:18;1.97;;;0.53;;
13708;SDS011;54933;51.908;7.730;2023-11-19T00:22:44;5.00;;;0.80;;
13708;SDS011;54933;51.908;7.730;2023-11-19T00:25:11;1.17;;;0.83;;
13708;SDS011;54933;51.908;7.730;2023-11-19T00:27:36;1.67;;;0.60;;
13708;SDS011;54933;51.908;7.730;2023-11-19T00:30:05;1.17;;;0.70;;
13708;SDS011;54933;51.908;7.730;2023-11-19T00:32:34;3.57;;;0.73;;
13708;SDS011;54933;51.908;7.730;2023-11-19T00:34:59;1.50;;;0.70;;
13708;SDS011;54933;51.908;7.730;2023-11-19T00:37:25;0.93;;;0.60;;
13708;SDS011;54933;51.908;7.730;2023-11-19T00:39:51;3.97;;;0.70;;
13708;SDS011;54933;51.908;7.730;2023-11-19T00:42:17;0.87;;;0.47;;
13708;SDS011;54933;51.908;7.730;2023-11-19T00:44:42;2.23;;;0.50;;
13708;SDS011;54933;51.908;7.730;2023-11-19T00:47:07;2.33;;;0.50;;
13708;SDS011;54933;51.908;7.730;2023-11-19T00:49:33;1.03;;;0.50;;
13708;SDS011;54933;51.908;7.730;2023-11-19T00:51:58;0.40;;;0.40;;
13708;SDS011;54933;51.908;7.730;2023-11-19T00:54:24;1.23;;;0.60;;
13708;SDS011;54933;51.908;7.730;2023-11-19T00:56:51;1.47;;;0.60;;
13708;SDS011;54933;51.908;7.730;2023-11-19T00:59:17;0.57;;;0.40;;
13708;SDS011;54933;51.908;7.730;2023-11-19T01:01:42;1.20;;;0.40;;
13708;SDS011;54933;51.908;7.730;2023-11-19T01:04:08;1.70;;;0.47;;
13708;SDS011;54933;51.908;7.730;2023-11-19T01:06:33;1.17;;;0.70;;
13708;SDS011;54933;51.908;7.730;2023-11-19T01:08:59;1.20;;;0.60;;
13708;SDS011;54933;51.908;7.730;2023-11-19T01:11:24;3.90;;;0.70;;
13708;SDS011;54933;51.908;7.730;2023-11-19T01:13:50;2.93;;;0.80;;
13708;SDS011;54933;51.908;7.730;2023-11-19T01:16:16;1.60;;;0.57;;
13708;SDS011;54933;51.908;7.730;2023-11-19T01:18:41;2.57;;;0.60;;
13708;SDS011;54933;51.908;7.730;2023-11-19T01:21:07;1.17;;;0.40;;
13708;SDS011;54933;51.908;7.730;2023-11-19T01:23:33;0.37;;;0.37;;
13708;SDS011;54933;51.908;7.730;2023-11-19T01:25:59;1.40;;;0.40;;
13708;SDS011;54933;51.908;7.730;2023-11-19T01:28:24;0.37;;;0.37;;
13708;SDS011;54933;51.908;7.730;2023-11-19T01:30:52;0.23;;;0.23;;
13708;SDS011;54933;51.908;7.730;2023-11-19T01:33:18;0.93;;;0.47;;
13708;SDS011;54933;51.908;7.730;2023-11-19T01:35:43;0.57;;;0.47;;
13708;SDS011;54933;51.908;7.730;2023-11-19T01:38:09;1.43;;;0.50;;
13708;SDS011;54933;51.908;7.730;2023-11-19T01:40:34;1.50;;;0.40;;
13708;SDS011;54933;51.908;7.730;2023-11-19T01:43:01;0.27;;;0.27;;
13708;SDS011;54933;51.908;7.730;2023-11-19T01:45:28;2.33;;;0.40;;
13708;SDS011;54933;51.908;7.730;2023-11-19T01:47:54;1.77;;;0.40;;
13708;SDS011;54933;51.908;7.730;2023-11-19T01:50:20;0.53;;;0.30;;
13708;SDS011;54933;51.908;7.730;2023-11-19T01:52:46;0.77;;;0.50;;
13708;SDS011;54933;51.908;7.730;2023-11-19T01:55:12;1.90;;;0.50;;
13708;SDS011;54933;51.908;7.730;2023-11-19T01:57:38;0.57;;;0.30;;
13708;SDS011;54933;51.908;7.730;2023-11-19T02:00:06;1.60;;;0.50;;
13708;SDS011;54933;51.908;7.730;2023-11-19T02:02:36;0.40;;;0.40;;
13708;SDS011;54933;51.908;7.730;2023-11-19T02:05:01;0.20;;;0.20;;
13708;SDS011;54933;51.908;7.730;2023-11-19T02:07:27;1.33;;;0.40;;
13708;SDS011;54933;51.908;7.730;2023-11-19T02:09:53;0.40;;;0.40;;
13708;SDS011;54933;51.908;7.730;2023-11-19T02:12:18;0.77;;;0.50;;
13708;SDS011;54933;51.908;7.730;2023-11-19T02:14:45;1.03;;;0.40;;
13708;SDS011;54933;51.908;7.730;2023-11-19T02:17:29;0.30;;;0.30;;
13708;SDS011;54933;51.908;7.730;2023-11-19T02:19:59;0.53;;;0.30;;
13708;SDS011;54933;51.908;7.730;2023-11-19T02:22:24;0.40;;;0.30;;
13708;SDS011;54933;51.908;7.730;2023-11-19T02:24:51;0.50;;;0.43;;
13708;SDS011;54933;51.908;7.730;2023-11-19T02:27:27;1.07;;;0.40;;
13708;SDS011;54933;51.908;7.730;2023-11-19T02:30:03;0.37;;;0.37;;
13708;SDS011;54933;51.908;7.730;2023-11-19T02:32:31;0.20;;;0.20;;
13708;SDS011;54933;51.908;7.730;2023-11-19T02:34:56;1.70;;;0.40;;
13708;SDS011;54933;51.908;7.730;2023-11-19T02:37:21;0.30;;;0.30;;
13708;SDS011;54933;51.908;7.730;2023-11-19T02:39:46;0.20;;;0.20;;
13708;SDS011;54933;51.908;7.730;2023-11-19T02:42:12;0.40;;;0.40;;
13708;SDS011;54933;51.908;7.730;2023-11-19T02:44:38;0.30;;;0.30;;
13708;SDS011;54933;51.908;7.730;2023-11-19T02:47:05;0.50;;;0.50;;
13708;SDS011;54933;51.908;7.730;2023-11-19T02:49:33;0.93;;;0.40;;
13708;SDS011;54933;51.908;7.730;2023-11-19T02:51:58;1.60;;;0.30;;
13708;SDS011;54933;51.908;7.730;2023-11-19T02:54:24;0.60;;;0.37;;
13708;SDS011;54933;51.908;7.730;2023-11-19T02:56:52;0.47;;;0.47;;
13708;SDS011;54933;51.908;7.730;2023-11-19T02:59:20;0.40;;;0.20;;
13708;SDS011;54933;51.908;7.730;2023-11-19T03:01:52;0.47;;;0.43;;
13708;SDS011;54933;51.908;7.730;2023-11-19T03:04:18;0.30;;;0.30;;
13708;SDS011;54933;51.908;7.730;2023-11-19T03:06:45;0.57;;;0.40;;
13708;SDS011;54933;51.908;7.730;2023-11-19T03:09:10;1.20;;;0.40;;
13708;SDS011;54933;51.908;7.730;2023-11-19T03:11:36;0.60;;;0.60;;
13708;SDS011;54933;51.908;7.730;2023-11-19T03:14:01;0.30;;;0.20;;
13708;SDS011;54933;51.908;7.730;2023-11-19T03:16:27;0.20;;;0.20;;
13708;SDS011;54933;51.908;7.730;2023-11-19T03:18:53;0.30;;;0.30;;
13708;SDS011;54933;51.908;7.730;2023-11-19T03:21:18;0.60;;;0.30;;
13708;SDS011;54933;51.908;7.730;2023-11-19T03:23:43;0.30;;;0.30;;
13708;SDS011;54933;51.908;7.730;2023-11-19T03:26:10;0.77;;;0.40;;
13708;SDS011;54933;51.908;7.730;2023-11-19T03:28:35;0.30;;;0.30;;
13708;SDS011;54933;51.908;7.730;2023-11-19T03:31:04;0.97;;;0.40;;
13708;SDS011;54933;51.908;7.730;2023-11-19T03:33:33;0.70;;;0.40;;
13708;SDS011;54933;51.908;7.730;2023-11-19T03:35:58;0.37;;;0.37;;
13708;SDS011;54933;51.908;7.730;2023-11-19T03:38:24;0.20;;;0.20;;
13708;SDS011;54933;51.908;7.730;2023-11-19T03:40:52;0.33;;;0.33;;
13708;SDS011;54933;51.908;7.730;2023-11-19T03:43:17;0.23;;;0.23;;
13708;SDS011;54933;51.908;7.730;2023-11-19T03:45:44;0.20;;;0.20;;
13708;SDS011;54933;51.908;7.730;2023-11-19T03:48:09;0.30;;;0.20;;
13708;SDS011;54933;51.908;7.730;2023-11-19T03:50:34;1.03;;;0.40;;
13708;SDS011;54933;51.908;7.730;2023-11-19T03:53:00;0.40;;;0.40;;
13708;SDS011;54933;51.908;7.730;2023-11-19T03:55:25;0.73;;;0.40;;
13708;SDS011;54933;51.908;7.730;2023-11-19T03:57:50;0.50;;;0.40;;
13708;SDS011;54933;51.908;7.730;2023-11-19T04:00:15;0.40;;;0.40;;
13708;SDS011;54933;51.908;7.730;2023-11-19T04:02:41;0.30;;;0.30;;
13708;SDS011;54933;51.908;7.730;2023-11-19T04:05:06;0.40;;;0.40;;
13708;SDS011;54933;51.908;7.730;2023-11-19T04:07:32;0.40;;;0.40;;
13708;SDS011;54933;51.908;7.730;2023-11-19T04:09:58;0.33;;;0.33;;
13708;SDS011;54933;51.908;7.730;2023-11-19T04:12:24;0.23;;;0.23;;
13708;SDS011;54933;51.908;7.730;2023-11-19T04:14:49;0.50;;;0.33;;
13708;SDS011;54933;51.908;7.730;2023-11-19T04:17:14;0.47;;;0.47;;
13708;SDS011;54933;51.908;7.730;2023-11-19T04:19:40;0.20;;;0.20;;
13708;SDS011;54933;51.908;7.730;2023-11-19T04:22:06;0.40;;;0.40;;
13708;SDS011;54933;51.908;7.730;2023-11-19T04:24:35;0.30;;;0.30;;
13708;SDS011;54933;51.908;7.730;2023-11-19T04:27:01;0.30;;;0.30;;
13708;SDS011;54933;51.908;7.730;2023-11-19T04:29:26;0.30;;;0.30;;
13708;SDS011;54933;51.908;7.730;2023-11-19T04:31:51;0.20;;;0.20;;
13708;SDS011;54933;51.908;7.730;2023-11-19T04:34:16;0.40;;;0.40;;
13708;SDS011;54933;51.908;7.730;2023-11-19T04:36:42;0.30;;;0.30;;
13708;SDS011;54933;51.908;7.730;2023-11-19T04:39:08;0.20;;;0.20;;
13708;SDS011;54933;51.908;7.730;2023-11-19T04:41:45;2.37;;;1.33;;
13708;SDS011;54933;51.908;7.730;2023-11-19T04:44:14;0.20;;;0.20;;
13708;SDS011;54933;51.908;7.730;2023-11-19T04:46:40;0.40;;;0.40;;
13708;SDS011;54933;51.908;7.730;2023-11-19T04:49:06;0.50;;;0.30;;
13708;SDS011;54933;51.908;7.730;2023-11-19T04:51:31;1.43;;;0.50;;
13708;SDS011;54933;51.908;7.730;2023-11-19T04:54:02;0.37;;;0.37;;
13708;SDS011;54933;51.908;7.730;2023-11-19T04:56:28;0.20;;;0.20;;
13708;SDS011;54933;51.908;7.730;2023-11-19T04:58:54;1.90;;;0.30;;
13708;SDS011;54933;51.908;7.730;2023-11-19T05:01:19;1.30;;;0.40;;
13708;SDS011;54933;51.908;7.730;2023-11-19T05:03:44;0.63;;;0.40;;
13708;SDS011;54933;51.908;7.730;2023-11-19T05:06:10;0.20;;;0.20;;
13708;SDS011;54933;51.908;7.730;2023-11-19T05:08:35;1.13;;;0.40;;
13708;SDS011;54933;51.908;7.730;2023-11-19T05:11:01;0.23;;;0.23;;
13708;SDS011;54933;51.908;7.730;2023-11-19T05:13:26;0.37;;;0.37;;
13708;SDS011;54933;51.908;7.730;2023-11-19T05:15:51;0.50;;;0.40;;
13708;SDS011;54933;51.908;7.730;2023-11-19T05:18:16;0.50;;;0.50;;
13708;SDS011;54933;51.908;7.730;2023-11-19T05:20:42;0.83;;;0.33;;
13708;SDS011;54933;51.908;7.730;2023-11-19T05:23:07;1.17;;;0.50;;
13708;SDS011;54933;51.908;7.730;2023-11-19T05:25:33;0.30;;;0.30;;
13708;SDS011;54933;51.908;7.730;2023-11-19T05:27:58;1.17;;;0.40;;
13708;SDS011;54933;51.908;7.730;2023-11-19T05:30:23;0.60;;;0.30;;
13708;SDS011;54933;51.908;7.730;2023-11-19T05:32:49;1.20;;;0.60;;
13708;SDS011;54933;51.908;7.730;2023-11-19T05:35:14;0.20;;;0.20;;
13708;SDS011;54933;51.908;7.730;2023-11-19T05:37:39;0.53;;;0.40;;
13708;SDS011;54933;51.908;7.730;2023-11-19T05:40:05;0.77;;;0.33;;
13708;SDS011;54933;51.908;7.730;2023-11-19T05:42:39;0.67;;;0.30;;
13708;SDS011;54933;51.908;7.730;2023-11-19T05:45:04;0.30;;;0.30;;
13708;SDS011;54933;51.908;7.730;2023-11-19T05:47:30;0.33;;;0.33;;
13708;SDS011;54933;51.908;7.730;2023-11-19T05:49:55;0.30;;;0.30;;
13708;SDS011;54933;51.908;7.730;2023-11-19T05:52:20;0.60;;;0.50;;
13708;SDS011;54933;51.908;7.730;2023-11-19T05:54:47;1.10;;;0.50;;
13708;SDS011;54933;51.908;7.730;2023-11-19T05:57:16;0.30;;;0.30;;
13708;SDS011;54933;51.908;7.730;2023-11-19T05:59:45;0.43;;;0.30;;
13708;SDS011;54933;51.908;7.730;2023-11-19T06:02:10;1.23;;;0.60;;
13708;SDS011;54933;51.908;7.730;2023-11-19T06:04:35;0.33;;;0.33;;
13708;SDS011;54933;51.908;7.730;2023-11-19T06:07:01;0.40;;;0.40;;
13708;SDS011;54933;51.908;7.730;2023-11-19T06:09:26;0.50;;;0.50;;
13708;SDS011;54933;51.908;7.730;2023-11-19T06:11:51;0.43;;;0.43;;
13708;SDS011;54933;51.908;7.730;2023-11-19T06:14:17;0.57;;;0.40;;
13708;SDS011;54933;51.908;7.730;2023-11-19T06:16:43;0.30;;;0.30;;
13708;SDS011;54933;51.908;7.730;2023-11-19T06:19:08;0.40;;;0.40;;
13708;SDS011;54933;51.908;7.730;2023-11-19T06:21:35;2.40;;;1.47;;
13708;SDS011;54933;51.908;7.730;2023-11-19T06:24:02;0.83;;;0.50;;
13708;SDS011;54933;51.908;7.730;2023-11-19T06:26:27;0.87;;;0.50;;
13708;SDS011;54933;51.908;7.730;2023-11-19T06:28:52;0.73;;;0.40;;
13708;SDS011;54933;51.908;7.730;2023-11-19T06:31:17;0.60;;;0.30;;
13708;SDS011;54933;51.908;7.730;2023-11-19T06:33:43;1.17;;;0.47;;
13708;SDS011;54933;51.908;7.730;2023-11-19T06:36:08;2.03;;;0.50;;
13708;SDS011;54933;51.908;7.730;2023-11-19T06:38:34;0.43;;;0.43;;
13708;SDS011;54933;51.908;7.730;2023-11-19T06:40:59;1.77;;;0.60;;
13708;SDS011;54933;51.908;7.730;2023-11-19T06:43:25;0.70;;;0.33;;
13708;SDS011;54933;51.908;7.730;2023-11-19T06:45:50;0.43;;;0.40;;
13708;SDS011;54933;51.908;7.730;2023-11-19T06:48:16;0.50;;;0.50;;
13708;SDS011;54933;51.908;7.730;2023-11-19T06:50:41;0.87;;;0.40;;
13708;SDS011;54933;51.908;7.730;2023-11-19T06:53:06;1.87;;;0.40;;
13708;SDS011;54933;51.908;7.730;2023-11-19T06:55:35;1.30;;;0.77;;
13708;SDS011;54933;51.908;7.730;2023-11-19T06:58:00;0.50;;;0.50;;
13708;SDS011;54933;51.908;7.730;2023-11-19T07:00:27;0.60;;;0.33;;
13708;SDS011;54933;51.908;7.730;2023-11-19T07:02:52;0.47;;;0.43;;
13708;SDS011;54933;51.908;7.730;2023-11-19T07:05:18;3.30;;;0.60;;
13708;SDS011;54933;51.908;7.730;2023-11-19T07:07:43;0.50;;;0.50;;
13708;SDS011;54933;51.908;7.730;2023-11-19T07:10:11;0.77;;;0.60;;
13708;SDS011;54933;51.908;7.730;2023-11-19T07:12:37;0.63;;;0.57;;
13708;SDS011;54933;51.908;7.730;2023-11-19T07:15:02;0.87;;;0.50;;
13708;SDS011;54933;51.908;7.730;2023-11-19T07:17:29;0.73;;;0.50;;
13708;SDS011;54933;51.908;7.730;2023-11-19T07:19:55;1.77;;;0.53;;
13708;SDS011;54933;51.908;7.730;2023-11-19T07:22:20;0.90;;;0.60;;
13708;SDS011;54933;51.908;7.730;2023-11-19T07:24:45;1.30;;;0.80;;
13708;SDS011;54933;51.908;7.730;2023-11-19T07:27:11;0.50;;;0.50;;
13708;SDS011;54933;51.908;7.730;2023-11-19T07:29:36;0.83;;;0.60;;
13708;SDS011;54933;51.908;7.730;2023-11-19T07:32:02;0.93;;;0.50;;
13708;SDS011;54933;51.908;7.730;2023-11-19T07:34:28;0.90;;;0.40;;
13708;SDS011;54933;51.908;7.730;2023-11-19T07:36:54;0.77;;;0.57;;
13708;SDS011;54933;51.908;7.730;2023-11-19T07:39:22;1.27;;;0.70;;
13708;SDS011;54933;51.908;7.730;2023-11-19T07:41:47;1.30;;;0.80;;
13708;SDS011;54933;51.908;7.730;2023-11-19T07:44:12;1.70;;;0.57;;
13708;SDS011;54933;51.908;7.730;2023-11-19T07:46:38;2.00;;;0.50;;
13708;SDS011;54933;51.908;7.730;2023-11-19T07:49:03;1.30;;;0.83;;
13708;SDS011;54933;51.908;7.730;2023-11-19T07:51:28;0.70;;;0.70;;
13708;SDS011;54933;51.908;7.730;2023-11-19T07:53:54;0.97;;;0.60;;
13708;SDS011;54933;51.908;7.730;2023-11-19T07:56:19;1.07;;;0.80;;
13708;SDS011;54933;51.908;7.730;2023-11-19T07:58:44;1.93;;;0.63;;
13708;SDS011;54933;51.908;7.730;2023-11-19T08:01:09;9.13;;;0.90;;
13708;SDS011;54933;51.908;7.730;2023-11-19T08:03:35;6.83;;;1.13;;
13708;SDS011;54933;51.908;7.730;2023-11-19T08:06:00;12.10;;;1.50;;
13708;SDS011;54933;51.908;7.730;2023-11-19T08:08:26;4.47;;;0.97;;
13708;SDS011;54933;51.908;7.730;2023-11-19T08:10:51;5.33;;;1.40;;
13708;SDS011;54933;51.908;7.730;2023-11-19T08:13:18;6.53;;;1.33;;
13708;SDS011;54933;51.908;7.730;2023-11-19T08:15:43;7.37;;;1.00;;
13708;SDS011;54933;51.908;7.730;2023-11-19T08:18:09;5.73;;;0.90;;
13708;SDS011;54933;51.908;7.730;2023-11-19T08:20:34;4.47;;;1.23;;
13708;SDS011;54933;51.908;7.730;2023-11-19T08:22:59;13.77;;;1.40;;
13708;SDS011;54933;51.908;7.730;2023-11-19T08:25:25;2.63;;;1.20;;
13708;SDS011;54933;51.908;7.730;2023-11-19T08:27:50;2.83;;;1.43;;
13708;SDS011;54933;51.908;7.730;2023-11-19T08:30:15;4.93;;;1.53;;
13708;SDS011;54933;51.908;7.730;2023-11-19T08:32:41;3.47;;;1.40;;
13708;SDS011;54933;51.908;7.730;2023-11-19T08:35:06;5.20;;;2.00;;
13708;SDS011;54933;51.908;7.730;2023-11-19T08:37:32;6.83;;;1.47;;
13708;SDS011;54933;51.908;7.730;2023-11-19T08:39:57;4.63;;;1.13;;
13708;SDS011;54933;51.908;7.730;2023-11-19T08:42:22;3.63;;;1.17;;
13708;SDS011;54933;51.908;7.730;2023-11-19T08:44:50;5.13;;;1.33;;
13708;SDS011;54933;51.908;7.730;2023-11-19T08:47:19;2.77;;;1.20;;
13708;SDS011;54933;51.908;7.730;2023-11-19T08:49:44;4.93;;;1.27;;
13708;SDS011;54933;51.908;7.730;2023-11-19T08:52:10;1.67;;;1.30;;
13708;SDS011;54933;51.908;7.730;2023-11-19T08:54:35;4.07;;;1.70;;
13708;SDS011;54933;51.908;7.730;2023-11-19T08:57:01;3.10;;;1.00;;
13708;SDS011;54933;51.908;7.730;2023-11-19T08:59:27;4.40;;;1.57;;
13708;SDS011;54933;51.908;7.730;2023-11-19T09:01:53;5.23;;;1.07;;
13708;SDS011;54933;51.908;7.730;2023-11-19T09:04:18;2.73;;;1.00;;
13708;SDS011;54933;51.908;7.730;2023-11-19T09:06:47;4.67;;;1.20;;
13708;SDS011;54933;51.908;7.730;2023-11-19T09:09:12;2.00;;;1.07;;
13708;SDS011;54933;51.908;7.730;2023-11-19T09:11:37;1.83;;;1.10;;
13708;SDS011;54933;51.908;7.730;2023-11-19T09:14:03;3.37;;;1.20;;
13708;SDS011;54933;51.908;7.730;2023-11-19T09:16:29;4.93;;;1.40;;
13708;SDS011;54933;51.908;7.730;2023-11-19T09:18:54;2.20;;;1.00;;
13708;SDS011;54933;51.908;7.730;2023-11-19T09:21:19;2.50;;;1.10;;
13708;SDS011;54933;51.908;7.730;2023-11-19T09:23:45;4.20;;;1.30;;
13708;SDS011;54933;51.908;7.730;2023-11-19T09:26:12;2.67;;;1.13;;
13708;SDS011;54933;51.908;7.730;2023-11-19T09:28:38;2.20;;;0.87;;
13708;SDS011;54933;51.908;7.730;2023-11-19T09:31:12;3.03;;;1.17;;
13708;SDS011;54933;51.908;7.730;2023-11-19T09:33:38;4.10;;;1.23;;
13708;SDS011;54933;51.908;7.730;2023-11-19T09:36:03;1.17;;;0.63;;
13708;SDS011;54933;51.908;7.730;2023-11-19T09:38:29;5.53;;;1.30;;
13708;SDS011;54933;51.908;7.730;2023-11-19T09:40:54;4.10;;;0.93;;
13708;SDS011;54933;51.908;7.730;2023-11-19T09:43:19;3.63;;;1.20;;
13708;SDS011;54933;51.908;7.730;2023-11-19T09:45:48;6.93;;;1.10;;
13708;SDS011;54933;51.908;7.730;2023-11-19T09:48:18;3.43;;;1.30;;
13708;SDS011;54933;51.908;7.730;2023-11-19T09:50:45;3.27;;;1.43;;
13708;SDS011;54933;51.908;7.730;2023-11-19T09:53:12;4.03;;;1.33;;
13708;SDS011;54933;51.908;7.730;2023-11-19T09:55:37;2.10;;;1.13;;
13708;SDS011;54933;51.908;7.730;2023-11-19T09:58:03;2.23;;;1.03;;
13708;SDS011;54933;51.908;7.730;2023-11-19T10:00:28;4.33;;;1.00;;
13708;SDS011;54933;51.908;7.730;2023-11-19T10:02:55;6.03;;;1.13;;
13708;SDS011;54933;51.908;7.730;2023-11-19T10:05:22;2.80;;;1.23;;
13708;SDS011;54933;51.908;7.730;2023-11-19T10:07:49;4.07;;;1.17;;
13708;SDS011;54933;51.908;7.730;2023-11-19T10:10:14;1.37;;;1.20;;
13708;SDS011;54933;51.908;7.730;2023-11-19T10:12:43;5.73;;;1.10;;
13708;SDS011;54933;51.908;7.730;2023-11-19T10:15:10;2.77;;;1.03;;
13708;SDS011;54933;51.908;7.730;2023-11-19T10:17:44;3.70;;;1.10;;
13708;SDS011;54933;51.908;7.730;2023-11-19T10:20:10;2.83;;;0.87;;
13708;SDS011;54933;51.908;7.730;2023-11-19T10:22:36;2.17;;;1.00;;
13708;SDS011;54933;51.908;7.730;2023-11-19T10:25:03;5.80;;;1.63;;
13708;SDS011;54933;51.908;7.730;2023-11-19T10:27:28;5.60;;;1.43;;
13708;SDS011;54933;51.908;7.730;2023-11-19T10:29:53;2.87;;;1.23;;
13708;SDS011;54933;51.908;7.730;2023-11-19T10:32:19;4.87;;;0.80;;
13708;SDS011;54933;51.908;7.730;2023-11-19T10:34:44;3.90;;;1.43;;
13708;SDS011;54933;51.908;7.730;2023-11-19T10:37:16;1.83;;;1.00;;
13708;SDS011;54933;51.908;7.730;2023-11-19T10:39:52;3.37;;;1.40;;
13708;SDS011;54933;51.908;7.730;2023-11-19T10:42:22;4.17;;;1.43;;
13708;SDS011;54933;51.908;7.730;2023-11-19T10:44:47;2.30;;;1.30;;
13708;SDS011;54933;51.908;7.730;2023-11-19T10:47:15;6.67;;;1.50;;
13708;SDS011;54933;51.908;7.730;2023-11-19T10:49:44;2.17;;;1.03;;
13708;SDS011;54933;51.908;7.730;2023-11-19T10:52:11;2.60;;;1.00;;
13708;SDS011;54933;51.908;7.730;2023-11-19T10:54:37;4.40;;;1.43;;
13708;SDS011;54933;51.908;7.730;2023-11-19T10:57:07;3.97;;;1.00;;
13708;SDS011;54933;51.908;7.730;2023-11-19T10:59:36;1.93;;;0.93;;
13708;SDS011;54933;51.908;7.730;2023-11-19T11:02:03;6.43;;;1.30;;
13708;SDS011;54933;51.908;7.730;2023-11-19T11:04:35;2.20;;;1.17;;
13708;SDS011;54933;51.908;7.730;2023-11-19T11:07:05;3.80;;;1.20;;
13708;SDS011;54933;51.908;7.730;2023-11-19T11:09:30;2.80;;;1.20;;
13708;SDS011;54933;51.908;7.730;2023-11-19T11:11:56;2.47;;;1.27;;
13708;SDS011;54933;51.908;7.730;2023-11-19T11:14:23;4.30;;;1.23;;
13708;SDS011;54933;51.908;7.730;2023-11-19T11:16:50;4.53;;;1.33;;
13708;SDS011;54933;51.908;7.730;2023-11-19T11:19:18;1.70;;;0.90;;
13708;SDS011;54933;51.908;7.730;2023-11-19T11:21:44;3.60;;;1.10;;
13708;SDS011;54933;51.908;7.730;2023-11-19T11:24:58;2.20;;;1.40;;
13708;SDS011;54933;51.908;7.730;2023-11-19T11:36:17;3.80;;;1.20;;
13708;SDS011;54933;51.908;7.730;2023-11-19T11:38:45;2.73;;;1.40;;
13708;SDS011;54933;51.908;7.730;2023-11-19T11:41:20;3.03;;;1.30;;
13708;SDS011;54933;51.908;7.730;2023-11-19T11:43:48;2.80;;;1.17;;
13708;SDS011;54933;51.908;7.730;2023-11-19T11:49:06;5.80;;;1.30;;
13708;SDS011;54933;51.908;7.730;2023-11-19T11:54:30;2.57;;;1.20;;
13708;SDS011;54933;51.908;7.730;2023-11-19T11:57:02;6.47;;;1.47;;
13708;SDS011;54933;51.908;7.730;2023-11-19T11:59:31;7.17;;;1.60;;
13708;SDS011;54933;51.908;7.730;2023-11-19T12:02:03;3.57;;;1.30;;
13708;SDS011;54933;51.908;7.730;2023-11-19T12:04:29;5.80;;;1.67;;
13708;SDS011;54933;51.908;7.730;2023-11-19T12:07:07;6.60;;;1.50;;
13708;SDS011;54933;51.908;7.730;2023-11-19T12:09:37;3.90;;;1.40;;
13708;SDS011;54933;51.908;7.730;2023-11-19T12:20:05;3.33;;;1.40;;
13708;SDS011;54933;51.908;7.730;2023-11-19T12:22:34;3.93;;;1.17;;
13708;SDS011;54933;51.908;7.730;2023-11-19T12:25:02;2.03;;;1.00;;
13708;SDS011;54933;51.908;7.730;2023-11-19T12:27:27;4.23;;;1.57;;
13708;SDS011;54933;51.908;7.730;2023-11-19T12:29:53;4.57;;;1.30;;
13708;SDS011;54933;51.908;7.730;2023-11-19T12:32:19;3.60;;;1.30;;
13708;SDS011;54933;51.908;7.730;2023-11-19T12:34:44;3.03;;;1.53;;
13708;SDS011;54933;51.908;7.730;2023-11-19T12:37:10;1.67;;;1.00;;
13708;SDS011;54933;51.908;7.730;2023-11-19T12:39:35;2.90;;;1.30;;
13708;SDS011;54933;51.908;7.730;2023-11-19T12:42:01;4.67;;;1.10;;
13708;SDS011;54933;51.908;7.730;2023-11-19T12:44:26;3.63;;;1.00;;
13708;SDS011;54933;51.908;7.730;2023-11-19T12:49:26;3.90;;;1.60;;
13708;SDS011;54933;51.908;7.730;2023-11-19T12:51:52;3.30;;;1.30;;
13708;SDS011;54933;51.908;7.730;2023-11-19T12:54:17;6.60;;;1.70;;
13708;SDS011;54933;51.908;7.730;2023-11-19T12:56:52;5.60;;;1.70;;
13708;SDS011;54933;51.908;7.730;2023-11-19T12:59:18;7.63;;;1.80;;
13708;SDS011;54933;51.908;7.730;2023-11-19T13:01:53;14.00;;;1.50;;
13708;SDS011;54933;51.908;7.730;2023-11-19T13:04:20;7.30;;;1.53;;
13708;SDS011;54933;51.908;7.730;2023-11-19T13:06:45;4.30;;;1.50;;
13708;SDS011;54933;51.908;7.730;2023-11-19T13:09:21;5.13;;;1.60;;
13708;SDS011;54933;51.908;7.730;2023-11-19T13:11:49;5.83;;;1.50;;
13708;SDS011;54933;51.908;7.730;2023-11-19T13:14:15;6.03;;;1.80;;
13708;SDS011;54933;51.908;7.730;2023-11-19T13:16:41;6.83;;;1.70;;
13708;SDS011;54933;51.908;7.730;2023-11-19T13:19:07;7.97;;;1.57;;
13708;SDS011;54933;51.908;7.730;2023-11-19T13:21:33;11.90;;;1.50;;
13708;SDS011;54933;51.908;7.730;2023-11-19T13:23:59;5.60;;;1.40;;
13708;SDS011;54933;51.908;7.730;2023-11-19T13:26:24;6.13;;;1.90;;
13708;SDS011;54933;51.908;7.730;2023-11-19T13:28:50;8.57;;;1.70;;
13708;SDS011;54933;51.908;7.730;2023-11-19T13:31:15;6.20;;;1.93;;
13708;SDS011;54933;51.908;7.730;2023-11-19T13:33:41;6.77;;;1.60;;
13708;SDS011;54933;51.908;7.730;2023-11-19T13:36:07;3.73;;;1.50;;
13708;SDS011;54933;51.908;7.730;2023-11-19T13:38:35;4.03;;;1.53;;
13708;SDS011;54933;51.908;7.730;2023-11-19T13:41:01;4.13;;;1.50;;
13708;SDS011;54933;51.908;7.730;2023-11-19T13:43:30;5.37;;;1.73;;
13708;SDS011;54933;51.908;7.730;2023-11-19T13:45:56;5.67;;;1.80;;
13708;SDS011;54933;51.908;7.730;2023-11-19T13:48:23;3.00;;;1.60;;
13708;SDS011;54933;51.908;7.730;2023-11-19T13:50:49;10.37;;;1.67;;
13708;SDS011;54933;51.908;7.730;2023-11-19T13:53:14;11.57;;;1.77;;
13708;SDS011;54933;51.908;7.730;2023-11-19T13:55:40;84.37;;;5.67;;
13708;SDS011;54933;51.908;7.730;2023-11-19T13:58:07;174.00;;;13.83;;
13708;SDS011;54933;51.908;7.730;2023-11-19T14:00:32;123.57;;;11.97;;
13708;SDS011;54933;51.908;7.730;2023-11-19T14:02:57;72.40;;;7.80;;
13708;SDS011;54933;51.908;7.730;2023-11-19T14:05:23;70.90;;;8.73;;
13708;SDS011;54933;51.908;7.730;2023-11-19T14:07:48;78.43;;;7.67;;
13708;SDS011;54933;51.908;7.730;2023-11-19T14:10:14;74.00;;;6.73;;
13708;SDS011;54933;51.908;7.730;2023-11-19T14:12:40;76.43;;;7.93;;
13708;SDS011;54933;51.908;7.730;2023-11-19T14:15:06;58.97;;;5.53;;
13708;SDS011;54933;51.908;7.730;2023-11-19T14:17:32;61.17;;;5.33;;
13708;SDS011;54933;51.908;7.730;2023-11-19T14:19:59;50.93;;;6.37;;
13708;SDS011;54933;51.908;7.730;2023-11-19T14:22:24;31.13;;;4.43;;
13708;SDS011;54933;51.908;7.730;2023-11-19T14:24:50;56.07;;;5.70;;
13708;SDS011;54933;51.908;7.730;2023-11-19T14:27:15;46.53;;;5.30;;
13708;SDS011;54933;51.908;7.730;2023-11-19T14:29:42;49.93;;;4.90;;
13708;SDS011;54933;51.908;7.730;2023-11-19T14:32:08;44.30;;;6.07;;
13708;SDS011;54933;51.908;7.730;2023-11-19T14:34:33;40.33;;;5.97;;
13708;SDS011;54933;51.908;7.730;2023-11-19T14:36:58;41.43;;;5.13;;
13708;SDS011;54933;51.908;7.730;2023-11-19T14:39:24;41.47;;;4.43;;
13708;SDS011;54933;51.908;7.730;2023-11-19T14:41:49;32.93;;;4.00;;
13708;SDS011;54933;51.908;7.730;2023-11-19T14:44:15;32.57;;;4.23;;
13708;SDS011;54933;51.908;7.730;2023-11-19T14:46:41;39.07;;;6.23;;
13708;SDS011;54933;51.908;7.730;2023-11-19T14:49:06;23.37;;;3.60;;
13708;SDS011;54933;51.908;7.730;2023-11-19T14:51:37;29.97;;;4.13;;
13708;SDS011;54933;51.908;7.730;2023-11-19T14:54:03;30.33;;;3.53;;
13708;SDS011;54933;51.908;7.730;2023-11-19T14:56:31;24.60;;;3.67;;
13708;SDS011;54933;51.908;7.730;2023-11-19T14:58:57;29.53;;;4.87;;
13708;SDS011;54933;51.908;7.730;2023-11-19T15:01:23;22.43;;;3.27;;
13708;SDS011;54933;51.908;7.730;2023-11-19T15:03:49;22.20;;;3.00;;
13708;SDS011;54933;51.908;7.730;2023-11-19T15:06:15;23.53;;;3.07;;